Time;durP1;ratioP1;P1;durP2;ratioP2;P2;SDS_P1;SDS_P2;PMS_P1;PMS_P2;Temp;Humidity;BMP_temperature;BMP_pressure;BME280_temperature;BME280_humidity;BME280_pressure;Samples;Min_cycle;Max_cycle;Signal;HPM_P1;HPM_P2
2022/10/05 00:00:15;;;;;;;6.50;5.90;;;16.10;90.20;;;;;;5057115;28;20472;-66
2022/10/05 00:02:42;;;;;;;9.20;6.43;;;16.10;90.20;;;;;;5057011;28;20453;-66
2022/10/05 00:05:20;;;;;;;9.47;6.50;;;16.10;90.20;;;;;;5056525;28;20826;-65
2022/10/05 00:07:48;;;;;;;6.77;6.07;;;16.10;90.30;;;;;;5057462;28;20913;-65
2022/10/05 00:10:17;;;;;;;9.77;6.53;;;16.10;90.40;;;;;;5057046;28;20540;-66
2022/10/05 00:12:44;;;;;;;9.47;6.30;;;16.10;90.40;;;;;;5056740;28;20453;-66
2022/10/05 00:15:14;;;;;;;8.60;6.70;;;16.10;90.50;;;;;;5057536;28;20460;-66
2022/10/05 00:17:42;;;;;;;7.50;6.70;;;16.10;90.50;;;;;;5057200;28;20464;-66
2022/10/05 00:20:17;;;;;;;9.40;6.90;;;16.10;90.60;;;;;;5056933;28;20508;-66
2022/10/05 00:22:44;;;;;;;7.83;6.20;;;16.00;90.70;;;;;;5057099;28;20440;-66
2022/10/05 00:25:15;;;;;;;8.20;6.47;;;16.10;90.80;;;;;;5057034;28;20947;-66
2022/10/05 00:27:42;;;;;;;6.90;6.20;;;16.00;90.70;;;;;;5057438;28;20449;-66
2022/10/05 00:30:14;;;;;;;14.33;7.00;;;16.00;90.80;;;;;;5057685;28;20925;-66
2022/10/05 00:32:41;;;;;;;9.20;7.40;;;16.00;90.80;;;;;;5057053;28;20438;-66
2022/10/05 00:35:09;;;;;;;8.30;6.53;;;16.00;90.90;;;;;;5056630;28;20493;-66
2022/10/05 00:37:36;;;;;;;9.30;6.30;;;16.00;90.90;;;;;;5057052;28;20815;-66
2022/10/05 00:40:04;;;;;;;8.93;6.73;;;16.00;90.90;;;;;;5056771;28;21005;-66
2022/10/05 00:42:43;;;;;;;8.47;7.63;;;15.90;90.90;;;;;;5056835;28;20454;-66
2022/10/05 00:45:15;;;;;;;10.33;6.80;;;15.90;91.00;;;;;;5056695;28;20430;-66
2022/10/05 00:47:51;;;;;;;7.90;6.20;;;15.80;91.10;;;;;;5056247;28;20437;-66
2022/10/05 00:50:42;;;;;;;7.80;7.00;;;15.80;91.20;;;;;;5056209;28;20469;-66
2022/10/05 00:53:21;;;;;;;10.43;7.53;;;15.80;91.30;;;;;;5056851;28;20790;-66
2022/10/05 00:55:57;;;;;;;7.87;7.03;;;15.70;91.40;;;;;;5056320;28;20897;-65
2022/10/05 00:58:38;;;;;;;8.60;7.73;;;15.60;91.40;;;;;;5056203;28;20433;-66
2022/10/05 01:01:09;;;;;;;9.17;7.23;;;15.60;91.50;;;;;;5056004;28;20464;-66
2022/10/05 01:03:47;;;;;;;7.93;7.10;;;15.60;91.60;;;;;;5056571;28;20449;-65
2022/10/05 01:06:23;;;;;;;15.20;6.90;;;15.60;91.70;;;;;;5056245;28;20426;-66
2022/10/05 01:08:57;;;;;;;8.43;7.53;;;15.60;91.90;;;;;;5056665;28;20460;-65
2022/10/05 01:11:30;;;;;;;8.23;7.40;;;15.60;91.90;;;;;;5056582;28;20488;-65
2022/10/05 01:14:09;;;;;;;8.60;7.73;;;15.60;92.00;;;;;;5056734;28;20454;-66
2022/10/05 01:16:43;;;;;;;11.03;6.60;;;15.60;92.20;;;;;;5056626;28;20456;-66
2022/10/05 01:19:25;;;;;;;9.20;7.03;;;15.60;92.20;;;;;;5057149;28;20476;-66
2022/10/05 01:21:56;;;;;;;8.33;7.53;;;15.60;92.20;;;;;;5056950;28;20440;-65
2022/10/05 01:24:49;;;;;;;8.93;7.53;;;15.60;92.30;;;;;;5057763;28;20444;-65
2022/10/05 01:27:32;;;;;;;11.37;7.70;;;15.60;92.50;;;;;;5056815;28;20477;-65
2022/10/05 01:30:03;;;;;;;15.97;7.70;;;15.60;92.60;;;;;;5057313;28;20476;-66
2022/10/05 01:32:35;;;;;;;8.77;7.87;;;15.60;92.80;;;;;;5057268;28;20479;-66
2022/10/05 01:35:16;;;;;;;10.00;7.10;;;15.60;92.80;;;;;;5056988;28;20449;-66
2022/10/05 01:37:52;;;;;;;8.70;7.87;;;15.60;93.00;;;;;;5057977;28;20433;-66
2022/10/05 01:40:26;;;;;;;8.13;7.43;;;15.60;93.00;;;;;;5057466;28;20472;-66
2022/10/05 01:43:05;;;;;;;9.40;7.50;;;15.60;93.20;;;;;;5057880;28;20444;-66
2022/10/05 01:45:43;;;;;;;9.63;8.73;;;15.60;93.30;;;;;;5057727;28;20434;-66
2022/10/05 01:48:19;;;;;;;9.17;7.37;;;15.60;93.30;;;;;;5057705;28;20437;-66
2022/10/05 01:50:56;;;;;;;10.33;7.10;;;15.60;93.40;;;;;;5057717;28;20488;-66
2022/10/05 01:53:36;;;;;;;11.97;8.47;;;15.60;93.40;;;;;;5058120;28;20436;-66
2022/10/05 01:56:09;;;;;;;9.00;8.20;;;15.60;93.50;;;;;;5058685;28;20441;-66
2022/10/05 01:58:47;;;;;;;9.07;8.27;;;15.60;93.50;;;;;;5057034;28;20433;-66
2022/10/05 02:01:19;;;;;;;9.33;8.43;;;15.50;93.60;;;;;;5058580;28;20436;-65
2022/10/05 02:03:50;;;;;;;11.90;10.20;;;15.50;93.60;;;;;;5057838;28;20441;-66
2022/10/05 02:06:20;;;;;;;13.97;9.37;;;15.50;93.50;;;;;;5057921;28;20440;-65
2022/10/05 02:08:52;;;;;;;10.07;9.13;;;15.60;93.50;;;;;;5061843;28;20444;-65
2022/10/05 02:11:19;;;;;;;14.13;10.00;;;15.50;93.50;;;;;;5072880;28;20486;-65
2022/10/05 02:13:51;;;;;;;8.40;7.70;;;15.50;93.50;;;;;;5072762;28;20457;-66
2022/10/05 02:16:25;;;;;;;10.80;9.27;;;15.50;93.60;;;;;;5072848;28;20436;-65
2022/10/05 02:18:57;;;;;;;9.13;8.33;;;15.50;93.70;;;;;;5071849;28;20427;-66
2022/10/05 02:21:26;;;;;;;8.67;7.90;;;15.40;93.60;;;;;;5073291;28;20426;-65
2022/10/05 02:23:59;;;;;;;9.57;8.57;;;15.50;93.80;;;;;;5072871;28;20445;-65
2022/10/05 02:26:27;;;;;;;11.47;9.00;;;15.40;93.80;;;;;;5071654;28;20932;-65
2022/10/05 02:28:58;;;;;;;11.00;8.93;;;15.40;93.90;;;;;;5075314;28;20969;-65
2022/10/05 02:31:30;;;;;;;9.80;8.20;;;15.40;93.80;;;;;;5076173;28;20487;-65
2022/10/05 02:34:25;;;;;;;11.87;8.60;;;15.40;93.80;;;;;;5077997;28;20482;-65
2022/10/05 02:37:05;;;;;;;9.00;8.10;;;15.40;93.80;;;;;;5076442;28;20954;-65
2022/10/05 02:39:43;;;;;;;8.50;7.70;;;15.40;93.80;;;;;;5066571;28;20456;-65
2022/10/05 02:42:18;;;;;;;9.80;7.70;;;15.40;93.80;;;;;;5072588;28;20424;-65
2022/10/05 02:44:57;;;;;;;11.13;8.10;;;15.40;93.70;;;;;;5072425;28;20432;-65
2022/10/05 02:47:34;;;;;;;10.03;8.23;;;15.40;93.50;;;;;;5068717;28;20440;-65
2022/10/05 02:50:09;;;;;;;7.97;6.80;;;15.40;93.40;;;;;;5064790;28;20468;-66
2022/10/05 02:52:54;;;;;;;8.60;7.73;;;15.40;93.50;;;;;;5058638;28;20494;-66
2022/10/05 02:55:26;;;;;;;9.20;7.83;;;15.30;93.40;;;;;;5058362;28;20444;-66
2022/10/05 02:58:01;;;;;;;13.70;7.40;;;15.30;93.50;;;;;;5058634;28;20815;-66
2022/10/05 03:00:34;;;;;;;9.07;8.20;;;15.30;93.40;;;;;;5057393;28;20484;-66
2022/10/05 03:03:09;;;;;;;9.20;7.60;;;15.20;93.20;;;;;;5057110;28;20433;-66
2022/10/05 03:05:40;;;;;;;10.53;8.23;;;15.30;93.40;;;;;;5057223;28;20442;-66
2022/10/05 03:08:15;;;;;;;9.47;8.10;;;15.20;93.30;;;;;;5057610;28;20438;-66
2022/10/05 03:10:49;;;;;;;8.20;7.30;;;15.20;93.30;;;;;;5057022;28;20873;-65
2022/10/05 03:13:25;;;;;;;8.60;7.77;;;15.10;93.20;;;;;;5057128;28;20465;-66
2022/10/05 03:16:15;;;;;;;7.27;6.53;;;15.10;93.30;;;;;;5057420;28;20447;-66
2022/10/05 03:18:53;;;;;;;8.60;7.30;;;15.10;93.30;;;;;;5056842;28;20437;-66
2022/10/05 03:21:32;;;;;;;9.67;8.20;;;15.00;93.40;;;;;;5057146;28;20433;-66
2022/10/05 03:24:14;;;;;;;9.03;8.03;;;15.00;93.40;;;;;;5057209;28;20517;-66
2022/10/05 03:26:48;;;;;;;8.50;7.03;;;15.00;93.60;;;;;;5056912;28;20463;-66
2022/10/05 03:29:26;;;;;;;7.67;6.80;;;15.00;93.70;;;;;;5057499;28;20480;-66
2022/10/05 03:32:03;;;;;;;10.87;7.63;;;14.90;93.80;;;;;;5057124;28;20484;-66
2022/10/05 03:34:37;;;;;;;9.63;7.60;;;15.00;93.80;;;;;;5056734;28;20444;-65
2022/10/05 03:37:10;;;;;;;7.57;6.77;;;14.90;93.90;;;;;;5057657;28;20451;-65
2022/10/05 03:39:44;;;;;;;9.30;7.73;;;15.00;93.90;;;;;;5056070;28;20479;-65
2022/10/05 03:42:22;;;;;;;9.30;7.13;;;15.00;93.80;;;;;;5056727;28;20804;-65
2022/10/05 03:44:56;;;;;;;8.47;7.67;;;14.80;93.80;;;;;;5056416;28;20437;-65
2022/10/05 03:47:34;;;;;;;9.00;7.70;;;14.80;93.80;;;;;;5056624;28;20437;-66
2022/10/05 03:50:16;;;;;;;9.63;8.73;;;14.80;93.90;;;;;;5056821;28;20476;-66
2022/10/05 03:52:47;;;;;;;8.73;7.37;;;14.80;94.10;;;;;;5056083;28;20470;-66
2022/10/05 03:55:21;;;;;;;7.50;6.70;;;14.80;94.60;;;;;;5055924;28;20441;-66
2022/10/05 03:57:52;;;;;;;8.67;7.73;;;14.90;94.20;;;;;;5056639;28;20821;-65
2022/10/05 04:00:22;;;;;;;10.27;7.60;;;14.80;94.10;;;;;;5056400;28;20473;-66
2022/10/05 04:02:57;;;;;;;7.90;7.10;;;14.90;94.20;;;;;;5056478;28;20547;-66
2022/10/05 04:05:27;;;;;;;11.13;8.37;;;14.90;94.00;;;;;;5056263;28;20429;-66
2022/10/05 04:07:59;;;;;;;9.33;7.23;;;14.90;94.10;;;;;;5056264;28;20443;-66
2022/10/05 04:10:29;;;;;;;9.47;7.80;;;14.90;94.10;;;;;;5055704;28;20491;-65
2022/10/05 04:13:01;;;;;;;8.37;7.20;;;14.80;94.10;;;;;;5056028;28;20483;-65
2022/10/05 04:15:33;;;;;;;11.00;7.73;;;14.90;94.20;;;;;;5055632;28;20938;-65
2022/10/05 04:18:05;;;;;;;9.23;7.13;;;14.90;94.20;;;;;;5056203;28;20444;-65
2022/10/05 04:20:38;;;;;;;11.50;7.40;;;14.90;94.30;;;;;;5056662;28;20485;-65
2022/10/05 04:23:12;;;;;;;9.80;8.00;;;14.90;94.30;;;;;;5056580;28;20869;-66
2022/10/05 04:25:44;;;;;;;8.50;7.70;;;14.90;94.30;;;;;;5056458;28;20441;-66
2022/10/05 04:28:17;;;;;;;10.57;7.77;;;14.80;94.20;;;;;;5055922;28;20910;-66
2022/10/05 04:30:47;;;;;;;9.37;8.47;;;14.90;94.40;;;;;;5055875;28;20468;-65
2022/10/05 04:33:15;;;;;;;9.83;8.70;;;14.90;94.40;;;;;;5055560;28;20562;-65
2022/10/05 04:36:04;;;;;;;11.80;9.10;;;14.80;94.20;;;;;;5055556;28;20492;-65
2022/10/05 04:38:43;;;;;;;12.13;9.27;;;14.80;94.60;;;;;;5055608;28;20441;-65
2022/10/05 04:41:24;;;;;;;10.67;8.60;;;14.80;94.40;;;;;;5056151;28;20895;-66
2022/10/05 04:44:08;;;;;;;11.67;9.67;;;14.70;94.40;;;;;;5056185;28;20436;-66
2022/10/05 04:46:48;;;;;;;11.43;7.47;;;14.70;94.60;;;;;;5055681;28;20448;-66
2022/10/05 04:49:35;;;;;;;10.97;8.03;;;14.70;94.40;;;;;;5055580;28;20834;-66
2022/10/05 04:52:11;;;;;;;9.00;8.17;;;14.70;94.70;;;;;;5055283;28;20846;-65
2022/10/05 04:54:50;;;;;;;9.90;8.90;;;14.70;94.60;;;;;;5057070;28;20437;-65
2022/10/05 04:57:21;;;;;;;8.30;7.50;;;14.60;94.70;;;;;;5055808;28;20435;-65
2022/10/05 05:00:04;;;;;;;10.40;7.87;;;14.60;94.70;;;;;;5055592;28;20542;-65
2022/10/05 05:02:42;;;;;;;8.07;7.30;;;14.70;94.80;;;;;;5055884;28;20445;-65
2022/10/05 05:05:31;;;;;;;8.97;8.20;;;14.70;94.70;;;;;;5055004;28;20567;-65
2022/10/05 05:08:10;;;;;;;8.93;8.07;;;14.70;94.60;;;;;;5055031;28;20468;-66
2022/10/05 05:11:04;;;;;;;10.30;8.30;;;14.70;94.50;;;;;;5054732;28;20475;-65
2022/10/05 05:14:06;;;;;;;9.70;8.80;;;14.70;94.50;;;;;;5054934;28;20493;-65
2022/10/05 05:16:38;;;;;;;9.67;8.60;;;14.70;94.90;;;;;;5022878;28;20978;-66
2022/10/05 05:19:16;;;;;;;9.77;8.13;;;14.60;94.60;;;;;;5054737;28;20471;-65
2022/10/05 05:21:51;;;;;;;9.57;8.53;;;14.50;94.70;;;;;;5054448;28;20427;-66
2022/10/05 05:24:25;;;;;;;9.93;7.00;;;14.50;94.60;;;;;;5054584;28;20431;-65
2022/10/05 05:27:03;;;;;;;8.20;7.40;;;14.60;94.80;;;;;;5054581;28;20436;-65
2022/10/05 05:29:42;;;;;;;9.13;8.20;;;14.50;94.70;;;;;;5055037;28;20460;-65
2022/10/05 05:32:23;;;;;;;9.67;8.67;;;14.50;94.80;;;;;;5055103;28;20622;-65
2022/10/05 05:35:08;;;;;;;9.47;8.47;;;14.50;94.90;;;;;;5054186;28;20925;-65
2022/10/05 05:37:43;;;;;;;12.60;8.13;;;14.40;94.80;;;;;;5054560;28;20444;-65
2022/10/05 05:40:16;;;;;;;8.97;8.17;;;14.40;94.80;;;;;;5054492;28;21004;-66
2022/10/05 05:42:52;;;;;;;8.90;7.07;;;14.50;94.80;;;;;;5054441;28;20436;-65
2022/10/05 05:45:27;;;;;;;8.33;7.57;;;14.40;94.80;;;;;;5053946;28;20809;-66
2022/10/05 05:47:58;;;;;;;8.20;7.37;;;14.40;94.90;;;;;;5054355;28;20440;-66
2022/10/05 05:50:33;;;;;;;11.23;8.13;;;14.40;95.00;;;;;;5054389;28;20480;-65
2022/10/05 05:53:09;;;;;;;8.07;7.37;;;14.40;95.10;;;;;;5056371;28;20480;-65
2022/10/05 05:55:40;;;;;;;8.17;7.37;;;14.40;95.00;;;;;;5060448;28;20452;-65
2022/10/05 05:58:14;;;;;;;11.73;7.13;;;14.40;95.10;;;;;;5054874;28;20945;-65
2022/10/05 06:00:47;;;;;;;7.80;7.00;;;14.30;95.10;;;;;;5055195;28;20504;-65
2022/10/05 06:03:20;;;;;;;8.80;7.50;;;14.30;95.20;;;;;;5054650;28;20432;-65
2022/10/05 06:05:51;;;;;;;6.70;6.10;;;14.40;95.10;;;;;;5055066;28;20430;-66
2022/10/05 06:08:27;;;;;;;8.30;7.47;;;14.40;95.10;;;;;;5055130;28;20907;-66
2022/10/05 06:10:59;;;;;;;9.50;8.60;;;14.40;95.10;;;;;;5055133;28;20503;-66
2022/10/05 06:13:30;;;;;;;7.40;6.40;;;14.40;95.00;;;;;;5054624;28;20473;-66
2022/10/05 06:16:04;;;;;;;8.70;7.33;;;14.50;95.00;;;;;;5054641;28;20442;-66
2022/10/05 06:18:32;;;;;;;7.03;6.33;;;14.50;95.00;;;;;;5065679;28;20455;-67
2022/10/05 06:21:02;;;;;;;8.00;6.60;;;14.50;95.00;;;;;;5064576;28;20479;-65
2022/10/05 06:23:48;;;;;;;7.53;6.13;;;14.50;94.90;;;;;;5064638;28;20453;-66
2022/10/05 06:26:24;;;;;;;7.70;7.00;;;14.60;94.90;;;;;;5063665;28;20440;-66
2022/10/05 06:28:56;;;;;;;6.50;6.00;;;14.60;94.80;;;;;;5064839;28;20437;-65
2022/10/05 06:31:34;;;;;;;9.30;6.77;;;14.70;94.70;;;;;;5065296;28;20480;-67
2022/10/05 06:34:13;;;;;;;7.93;7.03;;;14.70;94.70;;;;;;5065401;28;20472;-67
2022/10/05 06:36:43;;;;;;;8.00;6.60;;;14.70;94.60;;;;;;5065784;28;20881;-67
2022/10/05 06:39:38;;;;;;;7.07;6.27;;;14.80;94.60;;;;;;5064970;28;20473;-65
2022/10/05 06:42:18;;;;;;;6.27;5.77;;;14.80;94.50;;;;;;5062483;28;20465;-67
2022/10/05 06:44:53;;;;;;;6.20;5.50;;;14.90;94.50;;;;;;5065921;28;20441;-67
2022/10/05 06:47:29;;;;;;;8.97;6.73;;;14.90;94.50;;;;;;5066069;28;20433;-67
2022/10/05 06:50:03;;;;;;;7.73;6.93;;;15.00;94.30;;;;;;5066494;28;20469;-67
2022/10/05 06:52:39;;;;;;;7.47;5.63;;;15.10;94.30;;;;;;5064465;28;20476;-67
2022/10/05 06:55:18;;;;;;;7.00;5.77;;;15.10;94.10;;;;;;5064429;28;20441;-66
2022/10/05 06:57:57;;;;;;;5.97;5.40;;;15.10;94.30;;;;;;5064995;28;20913;-66
2022/10/05 07:00:27;;;;;;;6.70;6.10;;;15.20;94.00;;;;;;5064473;28;20813;-66
2022/10/05 07:03:02;;;;;;;7.07;5.90;;;15.20;93.80;;;;;;5064481;28;20434;-66
2022/10/05 07:05:48;;;;;;;9.70;6.70;;;15.20;93.80;;;;;;5064172;28;20436;-65
2022/10/05 07:08:23;;;;;;;7.47;6.10;;;15.20;93.80;;;;;;5064173;28;20461;-67
2022/10/05 07:11:04;;;;;;;7.47;5.80;;;15.20;93.60;;;;;;5064098;28;20484;-65
2022/10/05 07:13:52;;;;;;;9.03;6.00;;;15.20;93.80;;;;;;5065427;28;20470;-66
2022/10/05 07:16:29;;;;;;;8.17;6.10;;;15.30;93.90;;;;;;5068067;28;20437;-65
2022/10/05 07:19:11;;;;;;;6.10;5.33;;;15.20;93.70;;;;;;5067707;28;20433;-66
2022/10/05 07:21:44;;;;;;;6.57;5.83;;;15.30;93.70;;;;;;5067457;28;20435;-66
2022/10/05 07:24:26;;;;;;;5.83;5.33;;;15.30;93.70;;;;;;5067884;28;20437;-66
2022/10/05 07:27:03;;;;;;;6.97;6.23;;;15.40;93.70;;;;;;5067283;28;20456;-66
2022/10/05 07:29:34;;;;;;;9.10;6.23;;;15.40;93.60;;;;;;5064000;28;20491;-66
2022/10/05 07:32:10;;;;;;;8.67;7.13;;;15.40;93.50;;;;;;5059820;28;20440;-66
2022/10/05 07:34:47;;;;;;;6.80;6.20;;;15.40;93.60;;;;;;5059015;28;20473;-66
2022/10/05 07:40:12;;;;;;;6.67;6.00;;;15.50;93.30;;;;;;5059026;28;20448;-66
2022/10/05 07:42:51;;;;;;;6.83;6.23;;;15.60;93.40;;;;;;5059562;28;20469;-66
2022/10/05 07:45:26;;;;;;;6.90;6.00;;;15.60;93.40;;;;;;5059493;28;20532;-66
2022/10/05 07:47:55;;;;;;;6.50;5.90;;;15.60;93.20;;;;;;5058745;28;20810;-66
2022/10/05 07:50:26;;;;;;;6.20;5.60;;;15.60;93.20;;;;;;5058895;28;20473;-66
2022/10/05 07:52:57;;;;;;;9.47;6.47;;;15.70;93.20;;;;;;5059450;28;20476;-66
2022/10/05 07:55:26;;;;;;;8.70;5.90;;;15.80;93.30;;;;;;5059150;28;20899;-66
2022/10/05 07:58:02;;;;;;;6.40;5.80;;;15.80;92.90;;;;;;5058901;28;20464;-66
2022/10/05 08:00:47;;;;;;;7.10;5.50;;;15.90;92.90;;;;;;5059461;28;20500;-66
2022/10/05 08:03:23;;;;;;;5.83;5.20;;;16.00;92.60;;;;;;5059412;28;20481;-66
2022/10/05 08:05:50;;;;;;;8.83;6.27;;;16.10;92.40;;;;;;5058637;28;20818;-66
2022/10/05 08:08:25;;;;;;;6.10;5.50;;;16.20;92.50;;;;;;5059215;28;20457;-66
2022/10/05 08:10:57;;;;;;;5.70;5.10;;;16.30;92.20;;;;;;5058797;28;20477;-66
2022/10/05 08:13:32;;;;;;;8.50;5.10;;;16.40;92.20;;;;;;5058853;28;20883;-66
2022/10/05 08:16:02;;;;;;;6.97;4.80;;;16.60;91.80;;;;;;5058634;28;20430;-66
2022/10/05 08:18:47;;;;;;;5.17;4.67;;;16.60;91.50;;;;;;5058317;28;20438;-66
2022/10/05 08:21:15;;;;;;;5.33;4.83;;;16.70;91.70;;;;;;5058560;28;20523;-66
2022/10/05 08:23:50;;;;;;;5.70;4.67;;;16.80;91.20;;;;;;5058427;28;20442;-66
2022/10/05 08:26:25;;;;;;;4.17;3.77;;;16.90;91.30;;;;;;5058141;28;20430;-66
2022/10/05 08:29:03;;;;;;;5.60;4.50;;;17.10;91.00;;;;;;5058685;28;20440;-67
2022/10/05 08:31:34;;;;;;;4.67;3.67;;;17.20;90.70;;;;;;5058269;28;20438;-66
2022/10/05 08:34:15;;;;;;;4.40;4.00;;;17.30;90.50;;;;;;5057438;28;20507;-66
2022/10/05 08:36:54;;;;;;;4.13;3.37;;;17.40;90.30;;;;;;5057840;28;20545;-66
2022/10/05 08:39:23;;;;;;;4.23;3.70;;;17.50;90.20;;;;;;5057186;28;20466;-66
2022/10/05 08:42:24;;;;;;;4.87;3.70;;;17.60;90.00;;;;;;5056682;28;20497;-67
2022/10/05 08:45:44;;;;;;;4.53;3.00;;;17.70;89.90;;;;;;5056158;28;20441;-66
2022/10/05 08:48:34;;;;;;;4.97;3.50;;;17.90;89.30;;;;;;5031657;28;20445;-66
2022/10/05 08:51:22;;;;;;;3.43;3.00;;;18.00;89.10;;;;;;5056364;28;20462;-66
2022/10/05 08:54:13;;;;;;;8.63;3.73;;;18.10;87.40;;;;;;5057497;28;20466;-66
2022/10/05 08:56:43;;;;;;;5.60;3.23;;;18.20;86.80;;;;;;5057199;28;20449;-66
2022/10/05 08:59:41;;;;;;;2.90;2.60;;;18.30;86.50;;;;;;5056022;28;20474;-66
2022/10/05 09:02:23;;;;;;;5.07;3.17;;;18.40;86.30;;;;;;5056899;28;20458;-66
2022/10/05 09:05:10;;;;;;;3.33;3.03;;;18.40;85.80;;;;;;5056868;28;20429;-66
2022/10/05 09:08:06;;;;;;;3.80;2.80;;;18.50;86.30;;;;;;5056304;28;20430;-66
2022/10/05 09:11:09;;;;;;;3.73;2.87;;;18.50;86.40;;;;;;5058044;28;20484;-66
2022/10/05 09:14:01;;;;;;;3.33;2.77;;;18.60;86.10;;;;;;5056756;28;20484;-65
2022/10/05 09:16:56;;;;;;;3.10;2.30;;;18.60;84.30;;;;;;5056634;28;20438;-65
2022/10/05 09:19:59;;;;;;;3.30;2.63;;;18.70;83.80;;;;;;5056413;28;20466;-65
2022/10/05 09:22:36;;;;;;;3.13;2.27;;;18.70;83.10;;;;;;5056323;28;20433;-66
2022/10/05 09:25:21;;;;;;;3.07;2.40;;;18.80;83.10;;;;;;5055705;28;20438;-66
2022/10/05 09:27:56;;;;;;;4.90;2.10;;;18.80;82.10;;;;;;5055309;28;20511;-66
2022/10/05 09:30:29;;;;;;;3.03;2.20;;;18.90;82.30;;;;;;5056865;28;20489;-66
2022/10/05 09:33:31;;;;;;;2.30;2.10;;;19.00;83.00;;;;;;5055934;28;20437;-66
2022/10/05 09:36:32;;;;;;;4.87;2.50;;;19.00;82.40;;;;;;5055134;28;20922;-66
2022/10/05 09:39:44;;;;;;;5.57;2.23;;;19.00;81.50;;;;;;5042969;28;20975;-66
2022/10/05 09:42:28;;;;;;;3.27;2.20;;;19.00;81.50;;;;;;5040739;28;20460;-66
2022/10/05 09:45:30;;;;;;;3.27;2.10;;;18.90;81.20;;;;;;5056214;28;20438;-66
2022/10/05 09:48:39;;;;;;;6.83;2.13;;;19.00;81.10;;;;;;5056215;28;20516;-66
2022/10/05 09:51:42;;;;;;;2.90;1.90;;;19.00;81.30;;;;;;5056520;28;20469;-66
2022/10/05 09:54:44;;;;;;;2.30;2.07;;;19.00;81.10;;;;;;5053708;28;20848;-66
2022/10/05 09:57:38;;;;;;;4.00;2.57;;;19.00;80.80;;;;;;5046826;28;20462;-66
2022/10/05 10:00:15;;;;;;;2.17;1.83;;;19.00;81.20;;;;;;5055708;28;20469;-66
2022/10/05 10:03:21;;;;;;;8.03;2.20;;;19.00;81.60;;;;;;5056195;28;20437;-66
2022/10/05 10:06:29;;;;;;;3.40;1.97;;;19.10;81.70;;;;;;5056074;28;20528;-66
2022/10/05 10:09:18;;;;;;;3.63;1.90;;;19.10;81.00;;;;;;4994186;28;20821;-66
2022/10/05 10:12:03;;;;;;;2.90;1.60;;;19.20;81.30;;;;;;5050438;28;20449;-66
2022/10/05 10:15:09;;;;;;;6.37;2.10;;;19.30;80.60;;;;;;5055149;28;20470;-66
2022/10/05 10:17:55;;;;;;;2.80;1.83;;;19.30;80.60;;;;;;5054912;28;20458;-66
2022/10/05 10:20:35;;;;;;;6.97;1.73;;;19.50;80.70;;;;;;5054191;28;20465;-67
2022/10/05 10:23:18;;;;;;;2.73;2.07;;;19.60;79.30;;;;;;5054895;28;20487;-66
2022/10/05 10:26:13;;;;;;;4.53;2.43;;;19.80;78.40;;;;;;5054350;28;20434;-66
2022/10/05 10:29:25;;;;;;;1.80;1.70;;;20.00;77.40;;;;;;5054832;28;20437;-66
2022/10/05 10:32:03;;;;;;;3.83;1.73;;;20.40;75.80;;;;;;5054628;28;20947;-66
2022/10/05 10:35:08;;;;;;;1.37;1.27;;;20.80;74.00;;;;;;5054754;28;20478;-67
2022/10/05 10:38:03;;;;;;;5.30;1.70;;;21.10;71.10;;;;;;5024067;28;20446;-66
2022/10/05 10:40:41;;;;;;;2.30;1.90;;;21.40;69.70;;;;;;5055101;28;20495;-66
2022/10/05 10:43:39;;;;;;;2.53;1.40;;;21.50;68.30;;;;;;5056121;28;20445;-66
2022/10/05 10:46:18;;;;;;;2.00;1.40;;;21.70;67.30;;;;;;5055802;28;20464;-66
2022/10/05 10:49:02;;;;;;;1.47;1.37;;;22.00;66.10;;;;;;5058452;28;20440;-66
2022/10/05 10:52:12;;;;;;;3.10;1.60;;;22.70;64.00;;;;;;5059529;28;20541;-66
2022/10/05 10:55:12;;;;;;;1.37;1.27;;;23.20;60.60;;;;;;5044782;28;20560;-66
2022/10/05 10:57:51;;;;;;;1.60;1.50;;;23.50;59.80;;;;;;5060846;28;20461;-67
2022/10/05 11:00:44;;;;;;;4.57;1.10;;;24.10;57.70;;;;;;5060108;28;20824;-67
2022/10/05 11:03:46;;;;;;;3.20;1.30;;;24.30;55.50;;;;;;5057855;28;20541;-67
2022/10/05 11:06:34;;;;;;;2.70;1.63;;;24.80;54.50;;;;;;5060940;28;20426;-67
2022/10/05 11:09:24;;;;;;;2.10;1.20;;;25.50;52.50;;;;;;5061198;28;20472;-67
2022/10/05 11:12:34;;;;;;;1.60;1.50;;;26.00;51.80;;;;;;5058753;28;20429;-67
2022/10/05 11:15:21;;;;;;;3.00;1.60;;;26.60;48.50;;;;;;5058033;28;20474;-67
2022/10/05 11:18:09;;;;;;;4.00;1.10;;;26.80;47.60;;;;;;5066036;28;20437;-67
2022/10/05 11:21:14;;;;;;;2.10;1.63;;;27.40;47.20;;;;;;5068165;28;20482;-67
2022/10/05 11:24:11;;;;;;;3.90;1.27;;;28.10;44.10;;;;;;5068922;28;20430;-67
2022/10/05 11:26:54;;;;;;;1.90;1.17;;;28.70;43.00;;;;;;5067985;28;20430;-67
2022/10/05 11:29:45;;;;;;;2.27;1.20;;;29.40;41.50;;;;;;5067258;28;20474;-68
2022/10/05 11:32:49;;;;;;;1.80;1.40;;;29.90;38.90;;;;;;5055495;28;20970;-67
2022/10/05 11:36:09;;;;;;;1.37;1.10;;;30.00;37.80;;;;;;5055400;28;20492;-67
2022/10/05 11:39:16;;;;;;;2.00;1.30;;;30.40;37.90;;;;;;5066920;28;20441;-67
2022/10/05 11:42:12;;;;;;;2.43;1.47;;;30.90;36.90;;;;;;5050545;28;20449;-67
2022/10/05 11:45:20;;;;;;;2.30;1.43;;;31.40;36.20;;;;;;5059873;28;20445;-67
2022/10/05 11:48:22;;;;;;;1.40;1.30;;;31.50;34.90;;;;;;4996875;28;20455;-67
2022/10/05 11:51:12;;;;;;;1.83;1.23;;;31.80;34.80;;;;;;5058868;28;20468;-67
2022/10/05 11:53:42;;;;;;;1.77;1.30;;;32.30;33.70;;;;;;5055052;28;20825;-67
2022/10/05 11:56:21;;;;;;;1.40;1.30;;;32.40;32.50;;;;;;5057658;28;20449;-66
2022/10/05 11:58:53;;;;;;;2.27;1.20;;;32.00;32.00;;;;;;5058301;28;20473;-67
2022/10/05 12:01:28;;;;;;;2.13;1.27;;;31.90;32.80;;;;;;5056625;28;20461;-67
2022/10/05 12:04:06;;;;;;;2.17;1.33;;;32.20;32.50;;;;;;5058221;28;20433;-67
2022/10/05 12:06:48;;;;;;;3.17;1.50;;;32.50;32.50;;;;;;5057081;28;20444;-67
2022/10/05 12:09:33;;;;;;;2.43;1.27;;;32.80;31.20;;;;;;5056577;28;20477;-67
2022/10/05 12:12:11;;;;;;;1.90;1.33;;;33.00;30.80;;;;;;5057043;28;20429;-67
2022/10/05 12:14:49;;;;;;;6.00;1.50;;;33.30;30.70;;;;;;5056887;28;20487;-67
2022/10/05 12:17:26;;;;;;;3.00;1.63;;;33.30;29.60;;;;;;5057416;28;20426;-67
2022/10/05 12:19:58;;;;;;;1.90;1.40;;;33.20;30.00;;;;;;5057188;28;20460;-68
2022/10/05 12:22:33;;;;;;;3.07;1.33;;;33.30;30.50;;;;;;5056470;28;20432;-67
2022/10/05 12:25:17;;;;;;;1.10;1.00;;;33.70;30.20;;;;;;5057850;28;20425;-67
2022/10/05 12:27:48;;;;;;;2.93;1.30;;;34.10;29.60;;;;;;5057818;28;20438;-67
2022/10/05 12:30:18;;;;;;;4.30;1.50;;;34.40;28.80;;;;;;5058361;28;20548;-68
2022/10/05 12:32:55;;;;;;;2.60;1.30;;;34.70;28.70;;;;;;5059152;28;20914;-67
2022/10/05 12:35:27;;;;;;;2.20;1.10;;;34.90;28.10;;;;;;5057909;28;20476;-68
2022/10/05 12:38:02;;;;;;;2.90;1.20;;;35.10;28.00;;;;;;5057815;28;20449;-67
2022/10/05 12:40:39;;;;;;;1.57;1.17;;;35.10;27.90;;;;;;5058630;28;20226;-67
2022/10/05 12:43:15;;;;;;;1.30;1.20;;;35.50;28.00;;;;;;5058592;28;20437;-67
2022/10/05 12:45:57;;;;;;;5.33;1.53;;;35.70;27.40;;;;;;5058947;28;20186;-68
2022/10/05 12:48:48;;;;;;;1.57;1.20;;;35.50;27.00;;;;;;5058933;28;20183;-68
2022/10/05 12:51:22;;;;;;;3.30;1.63;;;35.30;27.30;;;;;;5059031;28;20281;-68
2022/10/05 12:53:57;;;;;;;2.60;1.77;;;35.10;27.50;;;;;;5059442;28;20936;-68
2022/10/05 12:56:35;;;;;;;1.40;1.30;;;35.10;27.50;;;;;;5058442;28;20914;-68
2022/10/05 12:59:10;;;;;;;2.27;1.27;;;35.30;27.50;;;;;;5058854;28;20223;-68
2022/10/05 13:01:41;;;;;;;1.60;1.50;;;35.50;27.30;;;;;;5057698;28;20190;-68
2022/10/05 13:04:21;;;;;;;6.70;1.53;;;35.80;27.10;;;;;;5058498;28;20198;-69
2022/10/05 13:07:02;;;;;;;5.03;1.20;;;36.30;26.10;;;;;;5058636;28;20197;-69
2022/10/05 13:09:38;;;;;;;3.30;1.33;;;36.60;25.90;;;;;;5059287;28;20233;-69
2022/10/05 13:12:10;;;;;;;2.90;1.50;;;36.80;25.50;;;;;;5059365;28;20191;-69
2022/10/05 13:14:48;;;;;;;1.70;1.40;;;36.80;25.40;;;;;;5058845;28;20207;-69
2022/10/05 13:17:23;;;;;;;1.10;1.00;;;36.70;25.80;;;;;;5057827;28;20269;-67
2022/10/05 13:19:57;;;;;;;4.00;1.30;;;36.90;26.10;;;;;;5058020;28;20226;-67
2022/10/05 13:22:36;;;;;;;3.45;1.25;;;37.20;24.80;;;;;;5058388;28;20194;-67
2022/10/05 13:25:20;;;;;;;5.13;1.00;;;37.20;24.30;;;;;;5058395;28;20629;-67
2022/10/05 13:27:55;;;;;;;2.65;1.30;;;37.30;24.90;;;;;;5059332;28;20197;-67
2022/10/05 13:30:22;;;;;;;4.35;1.30;;;37.50;24.40;;;;;;5058450;28;20230;-68
2022/10/05 13:32:55;;;;;;;2.10;1.05;;;37.70;23.80;;;;;;5057972;28;20218;-67
2022/10/05 13:35:34;;;;;;;1.70;1.08;;;37.60;23.90;;;;;;5058468;28;20214;-68
2022/10/05 13:38:11;;;;;;;2.47;0.98;;;37.60;23.70;;;;;;5058332;28;20619;-67
2022/10/05 13:40:46;;;;;;;4.00;1.10;;;37.50;24.00;;;;;;5058708;28;20229;-67
2022/10/05 13:43:19;;;;;;;1.63;1.10;;;37.60;24.00;;;;;;5058824;28;20225;-67
2022/10/05 13:45:52;;;;;;;2.45;1.02;;;37.70;24.00;;;;;;5058618;28;20193;-67
2022/10/05 13:48:45;;;;;;;4.13;1.17;;;37.50;23.60;;;;;;5066995;28;20188;-67
2022/10/05 13:51:17;;;;;;;2.70;1.58;;;37.40;24.20;;;;;;5067297;28;20191;-67